• Join FlightAware (Why Join?)
  • Login
  • US Flag 
10:25PM EDT


 

Airport Tracker/Info


-or-


 

Live Flight TrackerFlight Track Log ✈ N415JA ✈ 20-Feb-2014 ✈ KSDF - KTMB

Flight Track Log - Related Links

Times and Time Zones

All times are in EST time to prevent confusion due to time zone crossing. See the N415JA flight status page for this flight to view local times or setup timezone preferences in your user account.

Time Position Orientation Groundspeed Altitude Reporting Facility
EST Latitude Longitude Course Direction KTS MPH feet Rate Location/Type
04:47PM 38.0989 -85.6869 97° East 200 230 5,300  Level Indianapolis Center
04:48PM 38.0719 -85.6000 111° Southeast 323 372 8,400 3,060 Climbing Indianapolis Center
04:49PM 38.0989 -85.4822 74° East 342 394 11,700 2,880 Climbing Indianapolis Center
04:50PM 38.0794 -85.3697 102° East 329 379 14,400 2,520 Climbing Indianapolis Center
04:51PM 38.0642 -85.2483 99° East 343 395 17,000 2,700 Climbing Indianapolis Center
04:52PM 38.0153 -84.9361 97° East  Level FlightAware Approximate
04:52PM 38.0447 -85.1019 100° East 359 413 20,000  Level Indianapolis Center
04:53PM 38.0017 -84.7991 97° East  Level FlightAware Approximate
04:53PM 38.0278 -84.9681 99° East 379 436 22,100  Level Indianapolis Center
04:54PM 38.0100 -84.8219 99° East 392 451 24,200 1,920 Climbing Indianapolis Center
04:55PM 37.9933 -84.6833 99° East 411 473 26,100 1,620 Climbing Indianapolis Center
04:56PM 37.9317 -84.5656 124° Southeast 404 465 27,600 1,560 Climbing Indianapolis Center
04:57PM 37.8203 -84.4947 153° Southeast 386 444 29,400 1,500 Climbing Indianapolis Center
04:58PM 37.7208 -84.4342 154° Southeast 390 449 30,700 1,380 Climbing Indianapolis Center
04:59PM 37.6194 -84.3744 155° Southeast 401 461 32,300 1,500 Climbing Indianapolis Center
05:01PM 37.5208 -84.3142 154° Southeast 398 458 33,900 1,260 Climbing Indianapolis Center
05:02PM 37.4214 -84.2558 155° Southeast 397 457 35,000 840 Climbing Indianapolis Center
05:03PM 37.3203 -84.1958 155° Southeast 398 458 35,700 480 Climbing Indianapolis Center
05:04PM 37.1986 -84.1239 155° Southeast 409 471 36,000 420 Climbing Indianapolis Center
05:05PM 37.0942 -84.0628 155° Southeast 413 475 36,600 480 Climbing Indianapolis Center
05:06PM 36.9886 -84.0008 155° Southeast 414 476 37,000 180 Climbing Indianapolis Center
05:07PM 36.8822 -83.9386 155° Southeast 418 481 37,000  Level Indianapolis Center
05:08PM 36.7761 -83.8769 155° Southeast 419 482 37,000  Level Indianapolis Center
05:09PM 36.6525 -83.8053 155° Southeast 419 482 37,000  Level Indianapolis Center
05:10PM 36.5464 -83.7431 155° Southeast 419 482 37,000  Level Indianapolis Center
05:11PM 36.4347 -83.6786 155° Southeast 419 482 37,000  Level Indianapolis Center
05:12PM 36.3281 -83.6167 155° Southeast 419 482 37,000  Level Indianapolis Center
05:13PM 36.2211 -83.5553 155° Southeast 420 483 37,000  Level Indianapolis Center
05:14PM 36.1050 -83.4889 155° Southeast 420 483 37,000  Level Indianapolis Center
05:15PM 36.0297 -83.4481 156° South 418 481 37,000  Level Atlanta Center
05:16PM 35.9250 -83.3875 155° Southeast 418 481 37,000  Level Atlanta Center
05:17PM 35.8164 -83.3269 156° South 418 481 37,000  Level Atlanta Center
05:18PM 35.7094 -83.2664 155° Southeast 423 487 37,000  Level Atlanta Center
05:19PM 35.6028 -83.2061 155° Southeast 423 487 37,000  Level Atlanta Center
05:20PM 35.4939 -83.1433 155° Southeast 428 493 37,000  Level Atlanta Center
05:21PM 35.3850 -83.0833 156° South 428 493 37,000  Level Atlanta Center
05:22PM 35.2800 -83.0236 155° Southeast 422 486 37,000  Level Atlanta Center
05:23PM 35.1586 -82.9539 155° Southeast 422 486 37,000  Level Atlanta Center
05:24PM 35.0514 -82.8944 156° South 422 486 37,000  Level Atlanta Center
05:25PM 34.9425 -82.8353 156° South 422 486 37,000  Level Atlanta Center
05:26PM 34.8314 -82.7786 157° South 422 486 37,000  Level Atlanta Center
05:27PM 34.7200 -82.7172 156° South 427 491 37,000  Level Atlanta Center
05:28PM 34.6150 -82.6658 158° South 438 504 37,000  Level Atlanta Center
05:29PM 34.5000 -82.6272 165° South 438 504 37,000 60 Level Atlanta Center
05:30PM 34.3847 -82.5939 167° South 418 481 37,200 480 Climbing Atlanta Center
05:31PM 34.2675 -82.5583 166° South 412 474 38,000 360 Climbing Atlanta Center
05:32PM 34.1522 -82.5225 166° South 417 480 38,000  Level Atlanta Center
05:33PM 34.0264 -82.4847 166° South 443 510 38,000  Level Atlanta Center
05:34PM 33.9133 -82.4492 165° South 438 504 38,000  Level Atlanta Center
05:35PM 33.7939 -82.4139 166° South 433 498 38,000  Level Atlanta Center
05:36PM 33.6786 -82.3814 167° South 430 495 38,000  Level Atlanta Center
05:37PM 33.5592 -82.3461 166° South 439 505 38,000  Level Atlanta Center
05:38PM 33.4461 -82.3136 167° South 428 493 38,000  Level Atlanta Center
05:39PM 33.3453 -82.2783 164° South 428 493 38,000  Level Atlanta Center
05:40PM 33.2300 -82.2433 166° South 422 486 38,000  Level Atlanta Center
05:42PM 33.0036 -82.1742 166° South 417 480 38,000  Level Jacksonville Center
05:43PM 32.8867 -82.1406 166° South 423 487 38,000  Level Jacksonville Center
05:44PM 32.7694 -82.1069 166° South 429 494 38,000  Level Jacksonville Center
05:45PM 32.6525 -82.0708 165° South 429 494 38,000  Level Jacksonville Center
05:46PM 32.5331 -82.0350 166° South 429 494 38,000  Level Jacksonville Center
05:47PM 32.4203 -82.0042 167° South 429 494 38,000  Level Jacksonville Center
05:48PM 32.3011 -81.9708 167° South 432 497 38,000  Level Jacksonville Center
05:49PM 32.1839 -81.9353 166° South 432 497 38,000  Level Jacksonville Center
05:50PM 32.0772 -81.9044 166° South 432 497 38,000  Level Jacksonville Center
05:51PM 31.9472 -81.8642 165° South 432 497 38,000  Level Jacksonville Center
05:52PM 31.8281 -81.8314 167° South 432 497 38,000  Level Jacksonville Center
05:53PM 31.7214 -81.7983 165° South 432 497 38,000  Level Jacksonville Center
05:54PM 31.5936 -81.7633 167° South 432 497 38,000  Level Jacksonville Center
05:55PM 31.4889 -81.7328 166° South 437 503 38,000  Level Jacksonville Center
05:56PM 31.3569 -81.6931 166° South 431 496 38,000  Level Jacksonville Center
05:57PM 31.2503 -81.6653 167° South 431 496 38,000  Level Jacksonville Center
05:58PM 31.1225 -81.6258 165° South 431 496 38,000  Level Jacksonville Center
05:59PM 31.0031 -81.5933 167° South 431 496 38,000  Level Jacksonville Center
06:00PM 30.8858 -81.5586 166° South 431 496 38,000  Level Jacksonville Center
06:01PM 30.7686 -81.5242 166° South 431 496 38,000  Level Jacksonville Center
06:02PM 30.6533 -81.4894 165° South 431 496 38,000  Level Jacksonville Center
06:03PM 30.5342 -81.4575 167° South 431 496 38,000  Level Jacksonville Center
06:04PM 30.4189 -81.4231 166° South 431 496 38,000  Level Jacksonville Center
06:05PM 30.2994 -81.3914 167° South 431 496 38,000  Level Jacksonville Center
06:06PM 30.1822 -81.3594 167° South 431 496 38,000  Level Jacksonville Center
06:07PM 30.0628 -81.3256 166° South 431 496 38,000  Level Jacksonville Center
06:08PM 29.8742 -81.2719 166° South 434 499 38,000  Level Miami Center
06:09PM 29.7564 -81.2383 166° South 434 499 38,000  Level Miami Center
06:10PM 29.6364 -81.2050 166° South 439 505 38,000  Level Miami Center
06:11PM 29.5167 -81.1717 166° South 444 511 38,000  Level Miami Center
06:12PM 29.3964 -81.1431 168° South 449 517 38,000  Level Miami Center
06:13PM 29.2767 -81.1097 166° South 449 517 38,000  Level Miami Center
06:14PM 29.1569 -81.0622 161° South 449 517 38,000  Level Miami Center
06:15PM 29.0394 -81.0128 160° South 454 522 38,000  Level Miami Center
06:16PM 28.9200 -80.9633 160° South 459 528 38,000  Level Miami Center
06:17PM 28.8150 -80.9192 160° South 452 520 38,000  Level Miami Center
06:18PM 28.6953 -80.8722 161° South 459 528 38,000 -120 Level Miami Center
06:19PM 28.5672 -80.8203 160° South 459 528 37,800 -300 Descending Miami Center
06:20PM 28.4558 -80.7761 161° South 459 528 37,400 -780 Descending Miami Center
06:21PM 28.3258 -80.7197 159° South 459 528 36,300 -1,260 Descending Miami Center
06:22PM 28.2083 -80.6733 161° South 459 528 34,900 -1,200 Descending Miami Center
06:23PM 28.0903 -80.6317 163° South 454 522 34,000 -480 Descending Miami Center
06:24PM 27.9725 -80.5903 163° South 454 522 34,000  Level Miami Center
06:25PM 27.8733 -80.5542 162° South 459 528 34,000 -600 Level Miami Center
06:26PM 27.7367 -80.5122 165° South 459 528 32,900 -1,800 Descending Miami Center
06:27PM 27.6186 -80.4661 161° South 459 528 30,500 -2,400 Descending Miami Center
06:28PM 27.5031 -80.4203 161° South 449 517 28,200 -2,400 Descending Miami Center
06:29PM 27.3872 -80.3722 160° South 449 517 25,800 -2,340 Descending Miami Center
06:30PM 27.2714 -80.3267 161° South 443 510 23,600 -2,160 Descending Miami Center
06:31PM 27.1658 -80.2864 161° South 432 497 21,500 -2,100 Descending Miami Center
06:32PM 27.0603 -80.2433 160° South 412 474 19,400 -2,040 Descending Miami Center
06:33PM 26.9531 -80.1936 158° South 389 448 17,500 -1,920 Descending Miami Center
06:34PM 26.8536 -80.1561 161° South 376 433 15,600 -1,260 Descending Miami Center
06:35PM 26.7603 -80.1208 161° South 371 427 15,000 -300 Descending Miami Center
06:36PM 26.6756 -80.0883 161° South 362 417 15,000  Level Miami Center
06:37PM 26.5653 -80.0689 171° South 362 417 15,000 -420 Level Miami Center
06:37PM 26.5361 -80.0658 175° South 362 417 14,500 -1,620 Descending Miami Center
06:38PM 26.4800 -80.0550 170° South 355 409 13,400 -1,680 Descending Miami Center
06:38PM 26.4592 -80.0497 167° South 314 361 13,000 -2,040 Descending Miami Center
06:39PM 26.3861 -80.0386 172° South 322 371 11,400 -1,920 Descending Miami Center
06:39PM 26.3697 -80.0358 171° South 309 356 11,100 -1,020 Descending Miami Center
06:40PM 26.3092 -80.0250 171° South 315 362 10,400 -900 Descending Miami Center
06:40PM 26.2739 -80.0217 175° South 307 353 10,100 -420 Descending Miami Center
06:41PM 26.2278 -80.0250 184° South 309 356 10,000 -120 Descending Miami Center
06:42PM 26.1900 -80.0333 191° South 311 358 10,000  Level Miami Center
06:42PM 26.1353 -80.0481 194° South 304 350 10,000  Level Miami Center
06:42PM 26.1100 -80.0567 197° South 311 358 10,000 -540 Level Miami Center
06:43PM 26.0636 -80.0856 209° Southwest 295 339 9,500 -840 Descending Miami Center
06:44PM 26.0358 -80.1056 213° Southwest 259 298 9,100 -1,020 Descending Miami Center
06:44PM 25.9939 -80.1183 195° South 289 333 8,500 -900 Descending Miami Center
06:45PM 25.9667 -80.1267 195° South 267 307 8,200 -480 Descending Miami Center
06:45PM 25.9033 -80.1481 197° South 274 315 8,000 -180 Descending Miami Center
06:46PM 25.8297 -80.1714 196° South 271 312 7,900 -600 Descending Miami Center
06:47PM 25.7753 -80.1747 183° South 274 315 6,900 -1,380 Descending Miami Center
06:48PM 25.7525 -80.1739 178° South 233 268 6,400 -1,500 Descending Miami Center
06:49PM 25.6878 -80.1700 177° South 211 243 4,900 -1,380 Descending Miami Center
06:49PM 25.6556 -80.2106 229° Southwest 210 242 3,800 -900 Descending Miami Center
06:51PM 25.6206 -80.2742 239° Southwest 204 235 3,000 -360 Descending Miami Center
06:51PM 25.5986 -80.3242 244° Southwest 216 249 3,100  Climbing Miami Center
06:53PM 25.5967 -80.4025 268° West 216 249 3,000 -60 Descending Miami Center
06:54PM 25.5931 -80.4667 266° West 194 223 3,000 -600 Level Miami Center
06:55PM 25.6003 -80.5108 280° West 171 197 2,000 -1,080 Descending Miami Center
06:56PM 25.6339 -80.5047 North 117 135 1,100 -720 Descending Miami Center
06:57PM 25.6367 -80.4703 85° East 112 129 600 -540 Descending Miami Center
06:59PM 25.6476 -80.4332 124° Southeast  Level Estimated
07:06PM 25.6476 -80.4332 124° Southeast  Level Estimated